createdAt,value
2019-03-13T00:01:42.354Z,11.35
2019-03-13T00:04:11.267Z,11.73
2019-03-13T00:06:39.210Z,11.70
2019-03-13T00:09:07.715Z,12.07
2019-03-13T00:11:35.891Z,12.98
2019-03-13T00:14:04.041Z,15.65
2019-03-13T00:16:32.003Z,16.62
2019-03-13T00:18:59.971Z,18.17
2019-03-13T00:21:27.946Z,20.40
2019-03-13T00:23:55.930Z,20.30
2019-03-13T00:26:23.907Z,18.95
2019-03-13T00:28:51.459Z,19.73
2019-03-13T00:31:19.221Z,19.27
2019-03-13T00:33:47.191Z,17.85
2019-03-13T00:36:15.160Z,15.80
2019-03-13T00:38:43.026Z,16.52
2019-03-13T00:41:10.787Z,16.02
2019-03-13T00:43:38.550Z,15.83
2019-03-13T00:46:06.517Z,16.27
2019-03-13T00:48:34.182Z,15.38
2019-03-13T00:51:02.050Z,15.95
2019-03-13T00:53:30.737Z,16.55
2019-03-13T00:55:58.602Z,16.87
2019-03-13T00:58:26.668Z,17.05
2019-03-13T01:00:57.797Z,16.48
2019-03-13T01:03:33.565Z,17.73
2019-03-13T01:06:09.522Z,17.17
2019-03-13T01:08:37.488Z,18.92
2019-03-13T01:11:05.462Z,19.70
2019-03-13T01:13:33.455Z,19.70
2019-03-13T01:16:01.509Z,20.43
2019-03-13T01:18:29.258Z,18.85
2019-03-13T01:20:57.106Z,21.37
2019-03-13T01:23:25.303Z,21.10
2019-03-13T01:25:53.065Z,19.70
2019-03-13T01:28:20.832Z,17.95
2019-03-13T01:30:50.431Z,18.50
2019-03-13T01:33:20.451Z,18.82
2019-03-13T01:35:59.072Z,18.57
2019-03-13T01:38:26.835Z,18.82
2019-03-13T01:40:54.619Z,18.48
2019-03-13T01:43:22.361Z,14.33
2019-03-13T01:45:50.224Z,15.45
2019-03-13T01:48:17.995Z,15.80
2019-03-13T01:50:45.755Z,16.25
2019-03-13T01:53:14.133Z,16.80
2019-03-13T01:55:41.892Z,15.03
2019-03-13T01:58:09.968Z,15.13
2019-03-13T02:00:38.243Z,15.20
2019-03-13T02:03:06.731Z,15.45
2019-03-13T02:05:34.593Z,16.55
2019-03-13T02:08:02.342Z,15.70
2019-03-13T02:10:30.140Z,17.00
2019-03-13T02:12:57.984Z,19.40
2019-03-13T02:15:26.055Z,18.15
2019-03-13T02:17:53.922Z,17.23
2019-03-13T02:20:21.683Z,16.40
2019-03-13T02:22:49.450Z,17.45
2019-03-13T02:25:17.312Z,17.75
2019-03-13T02:27:45.074Z,17.52
2019-03-13T02:30:15.508Z,18.02
2019-03-13T02:32:43.168Z,17.92
2019-03-13T02:35:11.036Z,17.48
2019-03-13T02:37:38.895Z,17.15
2019-03-13T02:40:10.039Z,17.55
2019-03-13T02:42:37.806Z,17.00
2019-03-13T02:45:10.066Z,17.02
2019-03-13T02:47:37.425Z,17.45
2019-03-13T02:50:11.334Z,16.97
2019-03-13T02:52:40.133Z,17.50
2019-03-13T02:55:09.333Z,17.10
2019-03-13T02:57:36.671Z,16.50
2019-03-13T03:00:16.720Z,16.48
2019-03-13T03:02:46.536Z,17.62
2019-03-13T03:05:14.502Z,17.00
2019-03-13T03:07:42.265Z,16.45
2019-03-13T03:10:11.371Z,15.75
2019-03-13T03:12:39.020Z,14.33
2019-03-13T03:15:10.578Z,15.60
2019-03-13T03:17:37.932Z,15.70
2019-03-13T03:20:08.669Z,16.45
2019-03-13T03:22:36.020Z,15.85
2019-03-13T03:25:07.158Z,16.32
2019-03-13T03:27:34.724Z,15.88
2019-03-13T03:30:05.088Z,16.35
2019-03-13T03:32:33.517Z,16.95
2019-03-13T03:35:01.609Z,16.25
2019-03-13T03:37:30.577Z,15.55
2019-03-13T03:40:01.105Z,15.43
2019-03-13T03:42:28.997Z,14.28
2019-03-13T03:44:56.736Z,14.83
2019-03-13T03:47:24.499Z,15.32
2019-03-13T03:49:53.087Z,14.70
2019-03-13T03:52:20.948Z,14.28
2019-03-13T03:54:49.533Z,14.60
2019-03-13T03:57:17.197Z,13.80
2019-03-13T03:59:45.062Z,14.63
2019-03-13T04:02:13.334Z,13.93
2019-03-13T04:04:41.304Z,15.15
2019-03-13T04:07:09.377Z,14.55
2019-03-13T04:09:37.438Z,14.35
2019-03-13T04:12:07.253Z,14.68
2019-03-13T04:14:35.325Z,15.15
2019-03-13T04:17:03.296Z,15.88
2019-03-13T04:19:31.270Z,16.02
2019-03-13T04:21:59.243Z,15.78
2019-03-13T04:24:27.305Z,16.05
2019-03-13T04:26:55.170Z,15.40
2019-03-13T04:29:23.135Z,14.58
2019-03-13T04:31:53.255Z,14.28
2019-03-13T04:34:21.427Z,15.10
2019-03-13T04:36:49.606Z,13.13
2019-03-13T04:39:17.677Z,13.20
2019-03-13T04:41:45.642Z,12.15
2019-03-13T04:44:13.510Z,13.32
2019-03-13T04:46:41.474Z,12.88
2019-03-13T04:49:09.445Z,13.05
2019-03-13T04:51:37.514Z,13.30
2019-03-13T04:54:05.896Z,12.25
2019-03-13T04:56:33.557Z,11.93
2019-03-13T04:59:01.422Z,12.25
2019-03-13T05:01:29.800Z,11.35
2019-03-13T05:03:57.878Z,11.28
2019-03-13T05:06:26.862Z,10.60
2019-03-13T05:08:57.152Z,11.50
2019-03-13T05:11:24.643Z,11.60
2019-03-13T05:13:52.584Z,12.00
2019-03-13T05:16:20.683Z,12.10
2019-03-13T05:18:48.652Z,10.98
2019-03-13T05:21:16.632Z,11.55
2019-03-13T05:23:44.689Z,11.57
2019-03-13T05:26:12.656Z,11.85
2019-03-13T05:28:40.625Z,10.32
2019-03-13T05:31:09.103Z,10.15
2019-03-13T05:33:37.079Z,10.85
2019-03-13T05:36:05.251Z,11.65
2019-03-13T05:38:33.322Z,10.72
2019-03-13T05:41:01.307Z,10.28
2019-03-13T05:43:29.263Z,10.82
2019-03-13T05:45:57.426Z,12.63
2019-03-13T05:48:25.399Z,10.90
2019-03-13T05:50:53.470Z,11.28
2019-03-13T05:53:21.647Z,8.90
2019-03-13T05:55:49.411Z,11.03
2019-03-13T05:58:17.374Z,9.95
2019-03-13T06:00:46.776Z,11.38
2019-03-13T06:03:14.679Z,8.50
2019-03-13T06:05:42.956Z,8.58
2019-03-13T06:08:10.889Z,8.35
2019-03-13T06:10:38.660Z,8.93
2019-03-13T06:13:06.728Z,8.68
2019-03-13T06:15:34.508Z,6.90
2019-03-13T06:18:02.456Z,8.13
2019-03-13T06:20:30.423Z,8.98
2019-03-13T06:22:58.393Z,5.92
2019-03-13T06:25:26.367Z,6.60
2019-03-13T06:27:54.329Z,6.37
2019-03-13T06:30:22.225Z,6.30
2019-03-13T06:32:50.375Z,11.60
2019-03-13T06:35:18.341Z,11.60
2019-03-13T06:37:46.411Z,14.28
2019-03-13T06:40:19.696Z,8.75
2019-03-13T06:42:47.261Z,10.85
2019-03-13T06:45:15.436Z,8.15
2019-03-13T06:47:43.062Z,17.50
2019-03-13T06:50:18.665Z,10.82
2019-03-13T06:52:46.508Z,9.90
2019-03-13T06:55:14.373Z,9.45
2019-03-13T06:57:42.341Z,6.30
2019-03-13T07:00:30.379Z,10.15
2019-03-13T07:03:06.746Z,10.18
2019-03-13T07:05:36.864Z,9.15
2019-03-13T07:08:06.682Z,9.85
2019-03-13T07:10:42.713Z,5.45
2019-03-13T07:13:31.288Z,4.85
2019-03-13T07:16:00.994Z,9.05
2019-03-13T07:18:30.811Z,9.00
2019-03-13T07:21:00.520Z,8.05
2019-03-13T07:23:30.325Z,7.40
2019-03-13T07:26:09.057Z,12.00
2019-03-13T07:28:52.490Z,6.58
2019-03-13T07:31:25.358Z,9.48
2019-03-13T07:33:55.379Z,8.50
2019-03-13T07:36:25.194Z,6.83
2019-03-13T07:38:54.895Z,5.47
2019-03-13T07:41:30.630Z,7.33
2019-03-13T07:44:17.359Z,9.03
2019-03-13T07:46:47.178Z,7.87
2019-03-13T07:49:33.880Z,6.03
2019-03-13T07:52:20.180Z,6.15
2019-03-13T07:54:59.715Z,5.30
2019-03-13T07:57:33.008Z,6.45
2019-03-13T08:00:02.804Z,6.60
2019-03-13T08:02:36.222Z,6.85
2019-03-13T08:05:15.963Z,6.15
2019-03-13T08:07:59.088Z,3.87
2019-03-13T08:10:37.805Z,5.25
2019-03-13T08:13:14.089Z,7.12
2019-03-13T08:15:59.264Z,7.40
2019-03-13T08:18:35.103Z,5.60
2019-03-13T08:21:07.670Z,4.65
2019-03-13T08:23:37.488Z,6.08
2019-03-13T08:26:10.268Z,6.53
2019-03-13T08:28:41.001Z,3.95
2019-03-13T08:31:19.519Z,4.00
2019-03-13T08:33:49.632Z,5.00
2019-03-13T08:36:19.644Z,5.85
2019-03-13T08:38:58.780Z,4.30
2019-03-13T08:41:34.429Z,7.92
2019-03-13T08:44:04.342Z,6.75
2019-03-13T08:46:34.255Z,8.03
2019-03-13T08:49:13.401Z,5.95
2019-03-13T08:51:43.299Z,4.67
2019-03-13T08:54:22.737Z,3.12
2019-03-13T08:56:58.695Z,3.70
2019-03-13T08:59:31.573Z,4.40
2019-03-13T09:02:04.461Z,6.30
2019-03-13T09:04:42.117Z,4.90
2019-03-13T09:07:11.662Z,5.00
2019-03-13T09:09:41.675Z,4.12
2019-03-13T09:12:23.470Z,4.40
2019-03-13T09:15:05.365Z,3.62
2019-03-13T09:20:09.538Z,4.97
2019-03-13T09:22:44.939Z,4.40
2019-03-13T09:25:31.642Z,5.03
2019-03-13T09:28:10.470Z,4.80
2019-03-13T09:30:40.078Z,4.75
2019-03-13T09:33:18.489Z,5.08
2019-03-13T09:36:03.962Z,4.62
2019-03-13T09:38:33.595Z,4.42
2019-03-13T09:41:09.330Z,4.70
2019-03-13T09:43:41.797Z,4.83
2019-03-13T09:46:14.579Z,4.70
2019-03-13T09:48:46.847Z,3.90
2019-03-13T09:51:16.353Z,4.25
2019-03-13T09:53:52.106Z,4.40
2019-03-13T09:56:24.884Z,4.28
2019-03-13T09:58:54.695Z,5.05
2019-03-13T10:01:24.979Z,5.40
2019-03-13T10:03:57.391Z,4.75
2019-03-13T10:06:35.911Z,4.92
2019-03-13T10:09:17.191Z,3.72
2019-03-13T10:12:03.392Z,3.30
2019-03-13T10:14:35.758Z,3.58
2019-03-13T10:17:11.013Z,3.70
2019-03-13T10:19:43.288Z,4.72
2019-03-13T10:22:15.338Z,6.15
2019-03-13T10:24:45.142Z,7.92
2019-03-13T10:27:23.963Z,9.95
2019-03-13T10:30:11.901Z,8.53
2019-03-13T10:32:44.683Z,4.00
2019-03-13T10:35:17.682Z,4.92
2019-03-13T10:37:48.198Z,6.62
2019-03-13T10:40:27.236Z,8.95
2019-03-13T10:42:57.050Z,7.37
2019-03-13T10:45:32.991Z,4.78
2019-03-13T10:48:14.479Z,6.00
2019-03-13T10:50:44.393Z,4.67
2019-03-13T10:53:14.517Z,5.80
2019-03-13T10:55:56.923Z,3.62
2019-03-13T10:58:33.387Z,5.03
2019-03-13T11:01:13.850Z,7.25
2019-03-13T11:03:43.866Z,4.30
2019-03-13T11:06:16.750Z,4.00
2019-03-13T11:08:51.984Z,3.45
2019-03-13T11:11:24.362Z,3.33
2019-03-13T11:13:53.964Z,3.70
2019-03-13T11:16:23.557Z,3.90
2019-03-13T11:18:53.283Z,4.70
2019-03-13T11:21:26.170Z,5.00
2019-03-13T11:24:02.126Z,4.70
2019-03-13T11:26:41.151Z,3.52
2019-03-13T11:29:10.867Z,4.17
2019-03-13T11:31:43.344Z,3.40
2019-03-13T11:34:20.840Z,3.67
2019-03-13T11:36:56.369Z,3.85
2019-03-13T11:39:32.026Z,3.85
2019-03-13T11:42:04.909Z,4.00
2019-03-13T11:44:40.353Z,3.75
2019-03-13T11:47:41.409Z,4.03
2019-03-13T11:50:00.530Z,3.87
2019-03-13T11:52:35.072Z,4.10
2019-03-13T11:55:20.760Z,3.58
2019-03-13T11:57:56.813Z,4.40
2019-03-13T12:00:35.905Z,5.08
2019-03-13T12:03:09.138Z,3.37
2019-03-13T12:05:38.843Z,3.83
2019-03-13T12:08:08.758Z,3.58
2019-03-13T12:10:50.653Z,3.72
2019-03-13T12:13:29.370Z,3.60
2019-03-13T12:16:01.954Z,5.20
2019-03-13T12:18:34.863Z,4.22
2019-03-13T12:21:13.658Z,4.00
2019-03-13T12:23:46.193Z,3.75
2019-03-13T12:26:31.214Z,4.35
2019-03-13T12:29:00.808Z,3.15
2019-03-13T12:31:30.417Z,3.08
2019-03-13T12:34:00.224Z,3.35
2019-03-13T12:36:48.061Z,3.30
2019-03-13T12:39:23.502Z,3.22
2019-03-13T12:41:56.317Z,3.27
2019-03-13T12:44:42.685Z,3.42
2019-03-13T12:47:18.135Z,3.20
2019-03-13T12:49:50.604Z,3.17
2019-03-13T12:52:29.427Z,3.22
2019-03-13T12:55:08.276Z,2.98
2019-03-13T12:57:50.044Z,3.60
2019-03-13T13:00:20.062Z,4.03
2019-03-13T13:03:07.072Z,4.00
2019-03-13T13:05:36.889Z,4.00
2019-03-13T13:08:18.674Z,4.28
2019-03-13T13:11:06.616Z,3.60
2019-03-13T13:13:53.330Z,3.42
2019-03-13T13:16:31.898Z,3.55
2019-03-13T13:18:59.703Z,6.05
2019-03-13T13:21:27.667Z,4.25
2019-03-13T13:23:55.540Z,3.33
2019-03-13T13:26:23.306Z,3.30
2019-03-13T13:28:53.935Z,3.23
2019-03-13T13:31:21.798Z,3.70
2019-03-13T13:33:49.462Z,3.10
2019-03-13T13:36:17.428Z,4.00
2019-03-13T13:38:45.399Z,3.77
2019-03-13T13:41:13.160Z,4.95
2019-03-13T13:43:41.038Z,3.90
2019-03-13T13:46:15.345Z,3.52
2019-03-13T13:48:45.978Z,3.65
2019-03-13T13:51:13.704Z,5.47
2019-03-13T13:53:42.116Z,3.60
2019-03-13T13:56:09.982Z,3.40
2019-03-13T13:58:37.749Z,4.08
2019-03-13T14:01:05.923Z,4.20
2019-03-13T14:03:34.198Z,4.22
2019-03-13T14:06:02.478Z,4.40
2019-03-13T14:08:30.550Z,5.65
2019-03-13T14:10:58.534Z,4.75
2019-03-13T14:13:26.390Z,3.58
2019-03-13T14:15:54.343Z,3.30
2019-03-13T14:18:22.110Z,5.37
2019-03-13T14:20:50.093Z,5.28
2019-03-13T14:23:18.072Z,4.60
2019-03-13T14:25:46.368Z,4.10
2019-03-13T14:28:14.406Z,4.78
2019-03-13T14:30:42.359Z,4.25
2019-03-13T14:33:10.433Z,4.20
2019-03-13T14:35:38.399Z,4.25
2019-03-13T14:38:06.386Z,4.22
2019-03-13T14:40:34.132Z,4.20
2019-03-13T14:43:02.100Z,3.98
2019-03-13T14:45:29.866Z,4.65
2019-03-13T14:47:57.631Z,5.10
2019-03-13T14:50:25.699Z,4.92
2019-03-13T14:52:53.978Z,5.42
2019-03-13T14:55:21.943Z,5.40
2019-03-13T14:57:49.810Z,4.53
2019-03-13T15:00:19.243Z,4.90
2019-03-13T15:02:49.134Z,5.50
2019-03-13T15:05:17.198Z,5.45
2019-03-13T15:07:45.282Z,5.72
2019-03-13T15:10:15.928Z,5.72
2019-03-13T15:12:43.662Z,7.37
2019-03-13T15:15:14.676Z,7.80
2019-03-13T15:17:42.180Z,5.63
2019-03-13T15:20:15.672Z,5.67
2019-03-13T15:22:44.136Z,6.00
2019-03-13T15:25:13.029Z,7.20
2019-03-13T15:27:41.221Z,7.08
2019-03-13T15:30:21.152Z,8.18
2019-03-13T15:32:49.463Z,10.28
2019-03-13T15:35:17.617Z,9.68
2019-03-13T15:37:45.881Z,7.12
2019-03-13T15:40:15.182Z,8.20
2019-03-13T15:42:43.353Z,9.53
2019-03-13T15:45:23.712Z,8.55
2019-03-13T15:47:51.855Z,9.43
2019-03-13T15:50:21.608Z,8.10
2019-03-13T15:52:50.483Z,10.43
2019-03-13T15:55:18.959Z,8.60
2019-03-13T15:57:46.977Z,8.10
2019-03-13T16:00:21.044Z,9.98
2019-03-13T16:02:49.861Z,8.73
2019-03-13T16:05:17.798Z,11.08
2019-03-13T16:07:45.767Z,10.53
2019-03-13T16:10:14.860Z,10.70
2019-03-13T16:12:42.643Z,11.38
2019-03-13T16:15:16.853Z,11.43
2019-03-13T16:17:44.401Z,11.53
2019-03-13T16:20:14.170Z,10.38
2019-03-13T16:22:44.132Z,10.85
2019-03-13T16:25:12.301Z,11.33
2019-03-13T16:27:40.166Z,11.48
2019-03-13T16:30:18.275Z,14.87
2019-03-13T16:32:46.240Z,15.45
2019-03-13T16:35:14.525Z,15.03
2019-03-13T16:37:42.818Z,15.50
2019-03-13T16:40:13.115Z,14.85
2019-03-13T16:42:40.738Z,14.75
2019-03-13T16:45:11.444Z,15.08
2019-03-13T16:47:39.270Z,13.67
2019-03-13T16:50:10.531Z,12.28
2019-03-13T16:52:38.177Z,13.50
2019-03-13T16:55:09.833Z,13.13
2019-03-13T17:00:15.199Z,63.65
2019-03-13T17:02:43.699Z,93.27
2019-03-13T17:05:13.828Z,70.57
2019-03-13T17:07:41.582Z,69.97
2019-03-13T17:10:11.680Z,69.97
2019-03-13T17:12:39.332Z,80.87
2019-03-13T17:15:13.566Z,81.08
2019-03-13T17:17:41.215Z,82.02
2019-03-13T17:20:26.255Z,68.33
2019-03-13T17:22:54.561Z,56.75
2019-03-13T17:25:22.838Z,47.08
2019-03-13T17:27:50.912Z,41.37
2019-03-13T17:30:28.859Z,36.15
2019-03-13T17:32:56.567Z,36.60
2019-03-13T17:35:24.741Z,33.38
2019-03-13T17:37:52.505Z,35.92
2019-03-13T17:40:22.524Z,35.52
2019-03-13T17:42:50.208Z,38.58
2019-03-13T17:45:19.995Z,32.05
2019-03-13T17:47:47.783Z,32.67
2019-03-13T17:50:17.468Z,32.85
2019-03-13T17:52:45.643Z,36.95
2019-03-13T17:55:15.556Z,29.30
2019-03-13T17:57:43.227Z,29.82
2019-03-13T18:00:16.512Z,28.98
2019-03-13T18:02:45.300Z,27.93
2019-03-13T18:05:14.351Z,29.72
2019-03-13T18:07:42.259Z,24.60
2019-03-13T18:10:18.743Z,23.65
2019-03-13T18:12:46.794Z,26.02
2019-03-13T18:15:16.091Z,22.93
2019-03-13T18:17:44.169Z,29.00
2019-03-13T18:20:22.685Z,29.77
2019-03-13T18:22:50.652Z,30.68
2019-03-13T18:25:18.882Z,29.35
2019-03-13T18:27:47.508Z,31.35
2019-03-13T18:30:17.480Z,31.75
2019-03-13T18:32:44.989Z,30.27
2019-03-13T18:35:14.077Z,32.05
2019-03-13T18:37:41.945Z,34.30
2019-03-13T18:40:14.943Z,36.25
2019-03-13T18:42:42.804Z,36.08
2019-03-13T18:45:16.198Z,36.58
2019-03-13T18:47:43.752Z,34.58
2019-03-13T18:50:16.225Z,35.00
2019-03-13T18:52:44.200Z,33.85
2019-03-13T18:55:21.064Z,35.08
2019-03-13T18:57:50.729Z,31.57
2019-03-13T19:00:22.131Z,29.72
2019-03-13T19:02:50.741Z,28.98
2019-03-13T19:05:19.603Z,26.50
2019-03-13T19:07:47.574Z,27.87
2019-03-13T19:10:21.273Z,23.50
2019-03-13T19:12:48.833Z,24.85
2019-03-13T19:15:21.226Z,25.52
2019-03-13T19:17:48.873Z,26.48
2019-03-13T19:20:21.564Z,26.40
2019-03-13T19:22:49.712Z,27.70
2019-03-13T19:25:17.784Z,28.10
2019-03-13T19:27:45.661Z,29.32
2019-03-13T19:30:16.902Z,25.95
2019-03-13T19:32:44.865Z,23.47
2019-03-13T19:35:13.251Z,23.60
2019-03-13T19:37:41.521Z,22.10
2019-03-13T19:40:18.067Z,22.40
2019-03-13T19:42:45.545Z,25.62
2019-03-13T19:45:29.794Z,25.12
2019-03-13T19:48:01.302Z,22.15
2019-03-13T19:50:28.815Z,24.07
2019-03-13T19:52:57.609Z,23.27
2019-03-13T19:55:26.283Z,23.32
2019-03-13T19:57:54.675Z,22.60
2019-03-13T20:00:25.087Z,25.70
2019-03-13T20:03:00.435Z,23.57
2019-03-13T20:05:26.854Z,26.62
2019-03-13T20:07:55.338Z,31.05
2019-03-13T20:10:25.148Z,29.15
2019-03-13T20:12:53.226Z,28.55
2019-03-13T20:15:24.814Z,26.85
2019-03-13T20:17:54.687Z,25.72
2019-03-13T20:20:23.374Z,25.57
2019-03-13T20:23:09.565Z,26.05
2019-03-13T20:25:37.842Z,26.50
2019-03-13T20:28:06.633Z,27.07
2019-03-13T20:30:34.917Z,27.42
2019-03-13T20:33:03.620Z,28.05
2019-03-13T20:35:31.869Z,26.57
2019-03-13T20:38:00.346Z,23.67
2019-03-13T20:40:28.962Z,26.12
2019-03-13T20:42:57.413Z,27.05
2019-03-13T20:45:29.515Z,33.63
2019-03-13T20:47:57.137Z,54.08
2019-03-13T20:50:36.039Z,49.25
2019-03-13T20:52:55.432Z,42.40
2019-03-13T20:55:23.440Z,39.75
2019-03-13T20:57:51.774Z,39.55
2019-03-13T21:00:26.410Z,40.00
2019-03-13T21:02:55.090Z,46.02
2019-03-13T21:05:22.652Z,44.77
2019-03-13T21:07:51.021Z,49.77
2019-03-13T21:10:18.791Z,44.50
2019-03-13T21:12:46.857Z,45.45
2019-03-13T21:15:20.353Z,47.45
2019-03-13T21:17:48.432Z,47.35
2019-03-13T21:20:16.910Z,50.85
2019-03-13T21:22:44.850Z,52.73
2019-03-13T21:25:21.546Z,54.03
2019-03-13T21:27:49.309Z,57.30
2019-03-13T21:30:27.741Z,55.33
2019-03-13T21:32:56.408Z,56.30
2019-03-13T21:35:24.069Z,54.45
2019-03-13T21:37:52.154Z,55.52
2019-03-13T21:40:21.745Z,57.13
2019-03-13T21:42:49.512Z,58.83
2019-03-13T21:45:22.700Z,58.38
2019-03-13T21:47:47.207Z,61.75
2019-03-13T21:50:17.517Z,59.20
2019-03-13T21:52:45.582Z,59.63
2019-03-13T21:55:17.552Z,59.23
2019-03-13T21:57:45.410Z,63.30
2019-03-13T22:00:24.084Z,58.52
2019-03-13T22:02:52.223Z,62.80
2019-03-13T22:05:26.318Z,64.97
2019-03-13T22:07:50.298Z,63.90
2019-03-13T22:10:18.463Z,64.15
2019-03-13T22:12:46.434Z,66.60
2019-03-13T22:15:19.218Z,65.42
2019-03-13T22:17:47.283Z,83.27
2019-03-13T22:20:15.870Z,101.80
2019-03-13T22:22:43.834Z,96.08
2019-03-13T22:25:15.708Z,103.07
2019-03-13T22:27:43.670Z,94.42
2019-03-13T22:30:20.751Z,92.82
2019-03-13T22:32:48.720Z,92.37
2019-03-13T22:35:16.581Z,88.92
2019-03-13T22:37:45.683Z,84.95
2019-03-13T22:40:14.772Z,79.40
2019-03-13T22:42:42.581Z,78.30
2019-03-13T22:45:17.456Z,67.08
2019-03-13T22:47:45.438Z,67.65
2019-03-13T22:50:18.116Z,58.98
2019-03-13T22:52:45.776Z,53.30
2019-03-13T22:55:14.360Z,49.80
2019-03-13T22:57:42.329Z,49.53
2019-03-13T23:00:22.278Z,48.00
2019-03-13T23:02:52.091Z,46.50
2019-03-13T23:05:20.463Z,46.98
2019-03-13T23:07:48.332Z,48.15
2019-03-13T23:10:28.997Z,52.15
2019-03-13T23:12:57.067Z,50.73
2019-03-13T23:15:25.757Z,49.77
2019-03-13T23:17:53.730Z,49.10
2019-03-13T23:20:21.689Z,48.30
2019-03-13T23:22:49.657Z,50.35
2019-03-13T23:25:17.624Z,50.95
2019-03-13T23:27:45.699Z,49.25
2019-03-13T23:30:16.431Z,50.48
2019-03-13T23:32:44.300Z,49.48
2019-03-13T23:35:12.268Z,48.52
2019-03-13T23:37:40.338Z,52.35
2019-03-13T23:40:08.776Z,49.53
2019-03-13T23:42:36.891Z,49.40
2019-03-13T23:45:06.628Z,52.30
2019-03-13T23:47:34.160Z,54.63
2019-03-13T23:50:02.230Z,52.33
2019-03-13T23:52:30.095Z,50.08
2019-03-13T23:54:58.371Z,56.60
2019-03-13T23:57:26.241Z,68.85
2019-03-13T23:59:54.208Z,77.97
